AirNav   Air Wisconsin Up To $57,000 Bonus
 
 416 users online  

MI81 Express Heliport
Farmington Hills, Michigan, USA

GOING TO FARMINGTON HILLS?


FAA INFORMATION EFFECTIVE 31 DECEMBER 2020

Location

FAA Identifier: MI81
Lat/Long: 42-30-48.4000N 083-21-28.0000W
42-30.806667N 083-21.466667W
42.5134444,-83.3577778
(estimated)
Elevation: 895 ft. / 273 m (estimated)
From city: 2 miles N of FARMINGTON HILLS, MI
Time zone: UTC -5 (UTC -4 during Daylight Saving Time)
Zip code: 48334

Heliport Operations

Heliport use: Private use. Permission required prior to landing
Activation date: 05/2006
Control tower: no
ARTCC: CLEVELAND CENTER
FSS: LANSING FLIGHT SERVICE STATION
Attendance: UNATNDD
Wind indicator: yes
Segmented circle: no

Heliport Communications

CTAF: 122.9
WX AWOS-3 at VLL (8 nm E): 119.475 (248-288-4649)
WX ASOS at PTK (10 nm N): 125.025 (248-886-8551)
WX ASOS at DET (17 nm E): PHONE 313-371-9696
WX ASOS at DTW (18 nm S): PHONE 734-955-5015
WX ASOS at YIP (18 nm SW): PHONE 734-961-6843

Nearby radio navigation aids

VOR radial/distance  VOR name  Freq  Var
SVMr062/12.2SALEM VORTAC114.3003W
DXOr007/18.0DETROIT VOR/DME113.4006W
CRLr012/28.3CARLETON VOR/DME115.7003W
FNTr154/32.2FLINT VORTAC116.9006W

 
NDB name  Hdg/Dist  Freq  Var  ID
GROSSE ILE347/26.441907WRYS .-. -.-- ...
TECUMSEH045/37.123906WTCU - -.-. ..-

Heliport Services

Runway Information

Helipad H1

Dimensions: 20 x 20 ft. / 6 x 6 m
Surface: ROOF/TOP
ALUMINUM.
Latitude: 42-30.806667N
Longitude: 083-21.466667W
Elevation: 895.0 ft.
Traffic pattern: leftleft

Heliport Ownership and Management from official FAA records

Ownership: Privately-owned
Owner: MAURICE JANOWITZ
31333 W 13 MILE RD
FARMINGTON HILLS, MI 48334-2221
Phone 248-737-4980
Manager: STEVE JANOWITZ
31333 W 13 MILE RD
FARMINGTON HILLS, MI 48334-2221
Phone 248-702-0546

Additional Remarks

10 FT PLINE 70 FT N OF PAD.
OWNER DESIRES HELIPORT NOT BE CHARTED.
FOR CD CTC DETROIT APCH AT 800-499-8181.

Instrument Procedures

There are no published instrument procedures at MI81.

Some nearby airports with instrument procedures:

KVLL - Oakland/Troy Airport (8 nm E)
KPTK - Oakland County International Airport (10 nm N)
1D2 - Canton-Plymouth-Mettetal Airport (11 nm SW)
Y47 - Oakland Southwest Airport (12 nm W)
KDET - Coleman A Young Municipal Airport (17 nm E)
KDTW - Detroit Metro Wayne County Airport (18 nm S)
KYIP - Willow Run Airport (18 nm SW)
 
Loc | Ops | Rwys | IFR | FBO | Links
Com | Nav | Svcs | Stats | Notes
Area around MI81 (Express Heliport)
 
Road maps at: MapQuest Bing Google
 
Aerial photo
No photo
 
Sectional chart

 
Airport distance calculator
Flying to Express Heliport? Find the distance to fly.

From to MI81

Sunrise and sunset
Times for 23-Jan-2021
 Local
(UTC-5)
 Zulu
(UTC)
Morning civil twilight07:2612:26
Sunrise07:5712:57
Sunset17:3422:34
Evening civil twilight18:0523:05

Current date and time
Zulu (UTC)  23-Jan-2021 07:27:05
Local (UTC-5)  23-Jan-2021 02:27:05
 
METAR
KVLL 
8nm E 
230715Z AUTO 29008KT 10SM OVC046 M08/M16 A3024 RMK AO2 T10801158
KPTK 
10nm N 
230653Z AUTO 30010G14KT 10SM OVC042 M09/M17 A3018 RMK AO2 SLP238 T10891167
KDET 
17nm SE 
230653Z 30008KT 10SM OVC048 M08/M17 A3022 RMK AO2 SLP243 T10781167
KDTW 
17nm S 
230653Z 32010KT 9SM -SN OVC040 M08/M17 A3024 RMK AO2 SNE02B40 SLP250 P0000 T10781172
KYIP 
19nm SW 
230653Z 32014G19KT 10SM OVC039 M07/M16 A3023 RMK AO2 SLP246 T10671161 $
TAF
KPTK 
10nm N 
230523Z 2306/2406 31013KT P6SM BKN040 FM230900 28007KT P6SM SCT040 FM231700 26005KT P6SM BKN250 FM232300 22005KT P6SM OVC200
KDET 
17nm SE 
230523Z 2306/2406 30013KT P6SM BKN040 FM230900 28007KT P6SM SCT040 FM231700 26005KT P6SM BKN250 FM232300 22005KT P6SM OVC200
KDTW 
17nm S 
230523Z 2306/2412 30013KT P6SM BKN040 FM230900 28007KT P6SM SCT040 FM231700 26005KT P6SM BKN250 FM232300 22005KT P6SM OVC200
KYIP 
19nm SW 
230523Z 2306/2406 30013KT P6SM BKN040 FM230900 28007KT P6SM SCT040 FM231700 26005KT P6SM BKN250 FM232300 22005KT P6SM OVC200
NOTAMs
Click for the latest NOTAMs
NOTAMs are issued by the DoD/FAA and will open in a separate window not controlled by AirNav.

 

 
 

Would you like to see your business listed on this page?

 If your business provides an interesting product or service to pilots, flight crews, aircraft, or users of the Express Heliport, you should consider listing it here.  To start the listing process, click on the button below
 
Add a business
 

Other Pages about Express Heliport

Update a link
 
Copyright © AirNav, LLC. All rights reserved. Privacy Policy  Contact